sensor_id;sensor_type;location;lat;lon;timestamp;P1;durP1;ratioP1;P2;durP2;ratioP2
37891;SDS011;45797;47.466;9.486;2023-05-02T00:04:52;2.72;;;1.40;;
37891;SDS011;45797;47.466;9.486;2023-05-02T00:09:53;2.38;;;1.13;;
37891;SDS011;45797;47.466;9.486;2023-05-02T00:14:54;2.78;;;1.35;;
37891;SDS011;45797;47.466;9.486;2023-05-02T00:19:56;2.70;;;1.33;;
37891;SDS011;45797;47.466;9.486;2023-05-02T00:24:59;1.80;;;1.00;;
37891;SDS011;45797;47.466;9.486;2023-05-02T00:29:59;1.92;;;1.05;;
37891;SDS011;45797;47.466;9.486;2023-05-02T00:35:01;2.35;;;1.27;;
37891;SDS011;45797;47.466;9.486;2023-05-02T00:40:02;2.85;;;1.10;;
37891;SDS011;45797;47.466;9.486;2023-05-02T00:45:03;2.70;;;1.20;;
37891;SDS011;45797;47.466;9.486;2023-05-02T00:50:05;3.10;;;1.52;;
37891;SDS011;45797;47.466;9.486;2023-05-02T00:55:07;2.35;;;1.20;;
37891;SDS011;45797;47.466;9.486;2023-05-02T01:00:11;2.72;;;1.33;;
37891;SDS011;45797;47.466;9.486;2023-05-02T01:05:16;2.40;;;1.20;;
37891;SDS011;45797;47.466;9.486;2023-05-02T01:15:46;2.10;;;1.15;;
37891;SDS011;45797;47.466;9.486;2023-05-02T01:20:56;3.92;;;1.52;;
37891;SDS011;45797;47.466;9.486;2023-05-02T01:31:11;2.47;;;1.42;;
37891;SDS011;45797;47.466;9.486;2023-05-02T01:41:24;3.25;;;1.40;;
37891;SDS011;45797;47.466;9.486;2023-05-02T01:51:49;2.30;;;1.15;;
37891;SDS011;45797;47.466;9.486;2023-05-02T01:56:52;3.20;;;1.10;;
37891;SDS011;45797;47.466;9.486;2023-05-02T02:01:55;1.85;;;1.00;;
37891;SDS011;45797;47.466;9.486;2023-05-02T02:07:02;2.40;;;1.10;;
37891;SDS011;45797;47.466;9.486;2023-05-02T02:12:15;2.28;;;1.10;;
37891;SDS011;45797;47.466;9.486;2023-05-02T02:18:04;2.45;;;0.98;;
37891;SDS011;45797;47.466;9.486;2023-05-02T02:22:45;2.67;;;1.10;;
37891;SDS011;45797;47.466;9.486;2023-05-02T02:27:49;3.88;;;0.90;;
37891;SDS011;45797;47.466;9.486;2023-05-02T02:32:52;1.80;;;1.05;;
37891;SDS011;45797;47.466;9.486;2023-05-02T02:38:36;1.90;;;0.90;;
37891;SDS011;45797;47.466;9.486;2023-05-02T02:43:35;1.85;;;0.95;;
37891;SDS011;45797;47.466;9.486;2023-05-02T02:59:43;2.75;;;1.23;;
37891;SDS011;45797;47.466;9.486;2023-05-02T03:04:52;3.17;;;1.20;;
37891;SDS011;45797;47.466;9.486;2023-05-02T03:09:55;2.47;;;1.00;;
37891;SDS011;45797;47.466;9.486;2023-05-02T03:20:42;2.10;;;1.08;;
37891;SDS011;45797;47.466;9.486;2023-05-02T03:25:43;2.63;;;1.27;;
37891;SDS011;45797;47.466;9.486;2023-05-02T03:30:47;2.03;;;1.10;;
37891;SDS011;45797;47.466;9.486;2023-05-02T03:35:49;2.65;;;1.33;;
37891;SDS011;45797;47.466;9.486;2023-05-02T03:40:50;2.10;;;1.15;;
37891;SDS011;45797;47.466;9.486;2023-05-02T03:45:53;2.17;;;1.00;;
37891;SDS011;45797;47.466;9.486;2023-05-02T03:55:59;2.70;;;1.20;;
37891;SDS011;45797;47.466;9.486;2023-05-02T04:06:23;2.22;;;1.20;;
37891;SDS011;45797;47.466;9.486;2023-05-02T04:11:40;4.05;;;1.90;;
37891;SDS011;45797;47.466;9.486;2023-05-02T04:16:46;3.25;;;1.80;;
37891;SDS011;45797;47.466;9.486;2023-05-02T04:21:54;3.53;;;1.85;;
37891;SDS011;45797;47.466;9.486;2023-05-02T04:26:55;5.35;;;2.58;;
37891;SDS011;45797;47.466;9.486;2023-05-02T04:31:57;3.70;;;2.08;;
37891;SDS011;45797;47.466;9.486;2023-05-02T04:37:12;5.57;;;2.63;;
37891;SDS011;45797;47.466;9.486;2023-05-02T04:42:15;5.68;;;2.83;;
37891;SDS011;45797;47.466;9.486;2023-05-02T04:47:27;4.25;;;2.10;;
37891;SDS011;45797;47.466;9.486;2023-05-02T04:52:28;4.57;;;2.25;;
37891;SDS011;45797;47.466;9.486;2023-05-02T04:57:29;5.95;;;2.13;;
37891;SDS011;45797;47.466;9.486;2023-05-02T05:02:33;5.18;;;2.80;;
37891;SDS011;45797;47.466;9.486;2023-05-02T05:07:33;5.72;;;1.98;;
37891;SDS011;45797;47.466;9.486;2023-05-02T05:22:58;4.40;;;2.00;;
37891;SDS011;45797;47.466;9.486;2023-05-02T05:33:05;4.70;;;2.33;;
37891;SDS011;45797;47.466;9.486;2023-05-02T05:38:11;4.90;;;2.40;;
37891;SDS011;45797;47.466;9.486;2023-05-02T05:48:32;4.55;;;2.17;;
37891;SDS011;45797;47.466;9.486;2023-05-02T05:53:35;4.15;;;2.20;;
37891;SDS011;45797;47.466;9.486;2023-05-02T05:58:41;5.00;;;2.13;;
37891;SDS011;45797;47.466;9.486;2023-05-02T06:03:44;6.03;;;2.00;;
37891;SDS011;45797;47.466;9.486;2023-05-02T06:13:51;5.78;;;2.90;;
37891;SDS011;45797;47.466;9.486;2023-05-02T06:18:53;5.68;;;2.60;;
37891;SDS011;45797;47.466;9.486;2023-05-02T06:23:53;4.75;;;2.22;;
37891;SDS011;45797;47.466;9.486;2023-05-02T06:28:54;6.72;;;2.65;;
37891;SDS011;45797;47.466;9.486;2023-05-02T06:33:56;4.57;;;2.40;;
37891;SDS011;45797;47.466;9.486;2023-05-02T06:38:57;7.15;;;2.30;;
37891;SDS011;45797;47.466;9.486;2023-05-02T06:49:10;3.83;;;2.08;;
37891;SDS011;45797;47.466;9.486;2023-05-02T06:54:21;4.18;;;2.55;;
37891;SDS011;45797;47.466;9.486;2023-05-02T06:59:25;4.85;;;2.55;;
37891;SDS011;45797;47.466;9.486;2023-05-02T07:04:26;4.38;;;2.30;;
37891;SDS011;45797;47.466;9.486;2023-05-02T07:09:28;4.40;;;2.50;;
37891;SDS011;45797;47.466;9.486;2023-05-02T07:14:30;4.13;;;2.40;;
37891;SDS011;45797;47.466;9.486;2023-05-02T07:19:30;3.58;;;2.00;;
37891;SDS011;45797;47.466;9.486;2023-05-02T07:24:40;4.13;;;2.20;;
37891;SDS011;45797;47.466;9.486;2023-05-02T07:29:47;4.20;;;2.45;;
37891;SDS011;45797;47.466;9.486;2023-05-02T07:34:48;4.88;;;2.00;;
37891;SDS011;45797;47.466;9.486;2023-05-02T07:39:48;4.97;;;2.35;;
37891;SDS011;45797;47.466;9.486;2023-05-02T07:44:49;4.07;;;2.17;;
37891;SDS011;45797;47.466;9.486;2023-05-02T07:49:51;3.42;;;2.00;;
37891;SDS011;45797;47.466;9.486;2023-05-02T07:54:53;5.50;;;2.20;;
37891;SDS011;45797;47.466;9.486;2023-05-02T07:59:55;3.95;;;2.00;;
37891;SDS011;45797;47.466;9.486;2023-05-02T08:04:57;3.72;;;2.22;;
37891;SDS011;45797;47.466;9.486;2023-05-02T08:09:57;3.53;;;2.10;;
37891;SDS011;45797;47.466;9.486;2023-05-02T08:14:57;3.78;;;2.30;;
37891;SDS011;45797;47.466;9.486;2023-05-02T08:19:57;4.85;;;2.50;;
37891;SDS011;45797;47.466;9.486;2023-05-02T08:25:04;4.35;;;2.05;;
37891;SDS011;45797;47.466;9.486;2023-05-02T08:30:05;4.22;;;2.20;;
37891;SDS011;45797;47.466;9.486;2023-05-02T08:35:16;3.92;;;2.40;;
37891;SDS011;45797;47.466;9.486;2023-05-02T08:40:18;5.45;;;2.70;;
37891;SDS011;45797;47.466;9.486;2023-05-02T08:45:20;3.97;;;2.33;;
37891;SDS011;45797;47.466;9.486;2023-05-02T08:50:22;4.88;;;2.65;;
37891;SDS011;45797;47.466;9.486;2023-05-02T09:00:37;4.07;;;2.45;;
37891;SDS011;45797;47.466;9.486;2023-05-02T09:05:49;5.10;;;2.70;;
37891;SDS011;45797;47.466;9.486;2023-05-02T09:16:12;3.80;;;2.20;;
37891;SDS011;45797;47.466;9.486;2023-05-02T09:21:15;4.70;;;2.33;;
37891;SDS011;45797;47.466;9.486;2023-05-02T09:26:23;3.63;;;1.95;;
37891;SDS011;45797;47.466;9.486;2023-05-02T09:31:33;4.60;;;2.63;;
37891;SDS011;45797;47.466;9.486;2023-05-02T09:36:46;3.63;;;2.03;;
37891;SDS011;45797;47.466;9.486;2023-05-02T09:41:50;4.72;;;2.63;;
37891;SDS011;45797;47.466;9.486;2023-05-02T09:46:52;4.72;;;2.42;;
37891;SDS011;45797;47.466;9.486;2023-05-02T09:51:54;4.03;;;2.30;;
37891;SDS011;45797;47.466;9.486;2023-05-02T09:57:09;7.43;;;3.20;;
37891;SDS011;45797;47.466;9.486;2023-05-02T10:02:18;6.10;;;3.10;;
37891;SDS011;45797;47.466;9.486;2023-05-02T10:07:21;4.28;;;2.80;;
37891;SDS011;45797;47.466;9.486;2023-05-02T10:17:29;7.28;;;3.72;;
37891;SDS011;45797;47.466;9.486;2023-05-02T10:27:37;8.18;;;3.85;;
37891;SDS011;45797;47.466;9.486;2023-05-02T10:32:39;6.30;;;4.10;;
37891;SDS011;45797;47.466;9.486;2023-05-02T10:37:40;7.13;;;4.28;;
37891;SDS011;45797;47.466;9.486;2023-05-02T10:42:47;5.80;;;3.50;;
37891;SDS011;45797;47.466;9.486;2023-05-02T10:47:50;8.05;;;4.25;;
37891;SDS011;45797;47.466;9.486;2023-05-02T10:52:52;6.50;;;3.60;;
37891;SDS011;45797;47.466;9.486;2023-05-02T11:02:58;6.78;;;4.20;;
37891;SDS011;45797;47.466;9.486;2023-05-02T11:18:59;7.38;;;3.92;;
37891;SDS011;45797;47.466;9.486;2023-05-02T11:29:52;8.98;;;4.90;;
37891;SDS011;45797;47.466;9.486;2023-05-02T11:40:15;7.90;;;4.00;;
37891;SDS011;45797;47.466;9.486;2023-05-02T11:45:15;9.63;;;4.82;;
37891;SDS011;45797;47.466;9.486;2023-05-02T11:50:16;7.07;;;4.60;;
37891;SDS011;45797;47.466;9.486;2023-05-02T11:55:17;7.50;;;4.38;;
37891;SDS011;45797;47.466;9.486;2023-05-02T12:00:17;8.38;;;4.20;;
37891;SDS011;45797;47.466;9.486;2023-05-02T12:05:31;8.15;;;4.68;;
37891;SDS011;45797;47.466;9.486;2023-05-02T12:10:35;7.35;;;4.47;;
37891;SDS011;45797;47.466;9.486;2023-05-02T12:15:36;7.32;;;4.38;;
37891;SDS011;45797;47.466;9.486;2023-05-02T12:20:37;7.55;;;4.55;;
37891;SDS011;45797;47.466;9.486;2023-05-02T12:25:39;8.00;;;4.43;;
37891;SDS011;45797;47.466;9.486;2023-05-02T12:30:42;8.15;;;4.13;;
37891;SDS011;45797;47.466;9.486;2023-05-02T12:35:52;6.72;;;4.25;;
37891;SDS011;45797;47.466;9.486;2023-05-02T12:40:53;6.93;;;3.95;;
37891;SDS011;45797;47.466;9.486;2023-05-02T12:46:10;6.50;;;4.10;;
37891;SDS011;45797;47.466;9.486;2023-05-02T12:51:20;6.20;;;3.72;;
37891;SDS011;45797;47.466;9.486;2023-05-02T12:56:23;6.70;;;3.90;;
37891;SDS011;45797;47.466;9.486;2023-05-02T13:01:27;6.80;;;3.65;;
37891;SDS011;45797;47.466;9.486;2023-05-02T13:06:27;5.88;;;3.40;;
37891;SDS011;45797;47.466;9.486;2023-05-02T13:11:27;5.80;;;3.67;;
37891;SDS011;45797;47.466;9.486;2023-05-02T13:16:30;6.03;;;3.38;;
37891;SDS011;45797;47.466;9.486;2023-05-02T13:27:06;5.18;;;3.25;;
37891;SDS011;45797;47.466;9.486;2023-05-02T13:32:06;33.58;;;5.65;;
37891;SDS011;45797;47.466;9.486;2023-05-02T13:37:06;5.60;;;3.20;;
37891;SDS011;45797;47.466;9.486;2023-05-02T13:42:08;5.20;;;2.58;;
37891;SDS011;45797;47.466;9.486;2023-05-02T13:57:20;4.85;;;3.05;;
37891;SDS011;45797;47.466;9.486;2023-05-02T14:02:26;4.35;;;2.78;;
37891;SDS011;45797;47.466;9.486;2023-05-02T14:07:42;6.97;;;3.60;;
37891;SDS011;45797;47.466;9.486;2023-05-02T14:12:43;4.78;;;2.83;;
37891;SDS011;45797;47.466;9.486;2023-05-02T14:17:46;5.13;;;2.55;;
37891;SDS011;45797;47.466;9.486;2023-05-02T14:27:58;4.43;;;2.72;;
37891;SDS011;45797;47.466;9.486;2023-05-02T14:33:00;4.78;;;2.95;;
37891;SDS011;45797;47.466;9.486;2023-05-02T14:38:02;4.47;;;2.55;;
37891;SDS011;45797;47.466;9.486;2023-05-02T14:43:10;4.05;;;2.63;;
37891;SDS011;45797;47.466;9.486;2023-05-02T14:48:11;4.72;;;2.80;;
37891;SDS011;45797;47.466;9.486;2023-05-02T14:53:14;4.05;;;2.50;;
37891;SDS011;45797;47.466;9.486;2023-05-02T14:58:15;4.72;;;2.72;;
37891;SDS011;45797;47.466;9.486;2023-05-02T15:03:20;3.70;;;2.35;;
37891;SDS011;45797;47.466;9.486;2023-05-02T15:08:22;3.67;;;2.35;;
37891;SDS011;45797;47.466;9.486;2023-05-02T15:13:24;6.82;;;2.42;;
37891;SDS011;45797;47.466;9.486;2023-05-02T15:18:25;3.78;;;2.33;;
37891;SDS011;45797;47.466;9.486;2023-05-02T15:23:25;4.13;;;2.25;;
37891;SDS011;45797;47.466;9.486;2023-05-02T15:38:33;5.00;;;2.60;;
37891;SDS011;45797;47.466;9.486;2023-05-02T15:43:37;3.83;;;2.22;;
37891;SDS011;45797;47.466;9.486;2023-05-02T15:48:40;4.95;;;2.38;;
37891;SDS011;45797;47.466;9.486;2023-05-02T15:58:44;5.18;;;2.67;;
37891;SDS011;45797;47.466;9.486;2023-05-02T16:03:47;3.47;;;2.60;;
37891;SDS011;45797;47.466;9.486;2023-05-02T16:08:47;3.45;;;2.30;;
37891;SDS011;45797;47.466;9.486;2023-05-02T16:13:47;3.25;;;2.08;;
37891;SDS011;45797;47.466;9.486;2023-05-02T16:18:48;4.75;;;2.30;;
37891;SDS011;45797;47.466;9.486;2023-05-02T16:23:49;4.47;;;2.30;;
37891;SDS011;45797;47.466;9.486;2023-05-02T16:28:50;7.00;;;2.20;;
37891;SDS011;45797;47.466;9.486;2023-05-02T16:33:52;4.10;;;2.13;;
37891;SDS011;45797;47.466;9.486;2023-05-02T16:38:58;4.30;;;2.15;;
37891;SDS011;45797;47.466;9.486;2023-05-02T16:44:01;3.60;;;2.25;;
37891;SDS011;45797;47.466;9.486;2023-05-02T16:49:09;3.63;;;2.53;;
37891;SDS011;45797;47.466;9.486;2023-05-02T16:54:10;4.30;;;2.80;;
37891;SDS011;45797;47.466;9.486;2023-05-02T16:59:10;4.57;;;2.65;;
37891;SDS011;45797;47.466;9.486;2023-05-02T17:04:12;3.85;;;2.50;;
37891;SDS011;45797;47.466;9.486;2023-05-02T17:14:18;4.88;;;2.20;;
37891;SDS011;45797;47.466;9.486;2023-05-02T17:24:23;3.65;;;2.10;;
37891;SDS011;45797;47.466;9.486;2023-05-02T17:29:29;3.67;;;2.00;;
37891;SDS011;45797;47.466;9.486;2023-05-02T17:34:32;2.90;;;1.90;;
37891;SDS011;45797;47.466;9.486;2023-05-02T17:39:35;5.18;;;2.15;;
37891;SDS011;45797;47.466;9.486;2023-05-02T17:44:36;2.80;;;2.00;;
37891;SDS011;45797;47.466;9.486;2023-05-02T17:49:38;6.78;;;2.90;;
37891;SDS011;45797;47.466;9.486;2023-05-02T17:54:40;3.33;;;2.03;;
37891;SDS011;45797;47.466;9.486;2023-05-02T17:59:41;4.13;;;2.20;;
37891;SDS011;45797;47.466;9.486;2023-05-02T18:04:43;3.85;;;2.35;;
37891;SDS011;45797;47.466;9.486;2023-05-02T18:09:44;4.07;;;2.10;;
37891;SDS011;45797;47.466;9.486;2023-05-02T18:19:47;4.22;;;2.10;;
37891;SDS011;45797;47.466;9.486;2023-05-02T18:24:50;3.95;;;1.83;;
37891;SDS011;45797;47.466;9.486;2023-05-02T18:29:52;5.45;;;2.22;;
37891;SDS011;45797;47.466;9.486;2023-05-02T18:34:53;6.10;;;2.33;;
37891;SDS011;45797;47.466;9.486;2023-05-02T18:39:56;3.83;;;2.30;;
37891;SDS011;45797;47.466;9.486;2023-05-02T18:44:59;5.88;;;2.20;;
37891;SDS011;45797;47.466;9.486;2023-05-02T18:50:00;3.95;;;2.22;;
37891;SDS011;45797;47.466;9.486;2023-05-02T19:00:05;4.28;;;2.47;;
37891;SDS011;45797;47.466;9.486;2023-05-02T19:05:07;4.15;;;2.35;;
37891;SDS011;45797;47.466;9.486;2023-05-02T19:10:09;2.95;;;1.83;;
37891;SDS011;45797;47.466;9.486;2023-05-02T19:15:21;3.55;;;2.10;;
37891;SDS011;45797;47.466;9.486;2023-05-02T19:30:42;4.25;;;2.15;;
37891;SDS011;45797;47.466;9.486;2023-05-02T19:35:43;3.33;;;1.98;;
37891;SDS011;45797;47.466;9.486;2023-05-02T19:40:46;5.80;;;2.85;;
37891;SDS011;45797;47.466;9.486;2023-05-02T19:56:52;5.80;;;2.38;;
37891;SDS011;45797;47.466;9.486;2023-05-02T20:01:55;3.75;;;2.10;;
37891;SDS011;45797;47.466;9.486;2023-05-02T20:12:16;7.10;;;2.55;;
37891;SDS011;45797;47.466;9.486;2023-05-02T20:22:21;3.10;;;1.60;;
37891;SDS011;45797;47.466;9.486;2023-05-02T20:27:25;3.17;;;1.85;;
37891;SDS011;45797;47.466;9.486;2023-05-02T20:32:25;2.60;;;1.58;;
37891;SDS011;45797;47.466;9.486;2023-05-02T20:37:25;2.92;;;1.55;;
37891;SDS011;45797;47.466;9.486;2023-05-02T20:42:28;2.80;;;1.55;;
37891;SDS011;45797;47.466;9.486;2023-05-02T20:47:28;3.58;;;1.88;;
37891;SDS011;45797;47.466;9.486;2023-05-02T20:57:36;4.35;;;1.83;;
37891;SDS011;45797;47.466;9.486;2023-05-02T21:02:39;3.58;;;1.60;;
37891;SDS011;45797;47.466;9.486;2023-05-02T21:07:40;3.30;;;1.63;;
37891;SDS011;45797;47.466;9.486;2023-05-02T21:12:40;2.53;;;1.52;;
37891;SDS011;45797;47.466;9.486;2023-05-02T21:23:03;3.55;;;1.92;;
37891;SDS011;45797;47.466;9.486;2023-05-02T21:28:05;3.15;;;1.85;;
37891;SDS011;45797;47.466;9.486;2023-05-02T21:33:12;4.25;;;2.35;;
37891;SDS011;45797;47.466;9.486;2023-05-02T21:38:17;4.65;;;2.20;;
37891;SDS011;45797;47.466;9.486;2023-05-02T21:43:17;3.83;;;2.08;;
37891;SDS011;45797;47.466;9.486;2023-05-02T21:48:18;3.40;;;1.90;;
37891;SDS011;45797;47.466;9.486;2023-05-02T21:53:25;3.55;;;1.90;;
37891;SDS011;45797;47.466;9.486;2023-05-02T21:58:27;4.50;;;2.20;;
37891;SDS011;45797;47.466;9.486;2023-05-02T22:03:30;3.88;;;1.98;;
37891;SDS011;45797;47.466;9.486;2023-05-02T22:08:39;5.00;;;1.90;;
37891;SDS011;45797;47.466;9.486;2023-05-02T22:18:56;3.35;;;2.08;;
37891;SDS011;45797;47.466;9.486;2023-05-02T22:23:57;5.28;;;2.17;;
37891;SDS011;45797;47.466;9.486;2023-05-02T22:29:07;3.70;;;1.83;;
37891;SDS011;45797;47.466;9.486;2023-05-02T22:34:13;3.65;;;2.08;;
37891;SDS011;45797;47.466;9.486;2023-05-02T22:54:41;3.35;;;2.08;;
37891;SDS011;45797;47.466;9.486;2023-05-02T22:59:47;4.65;;;2.42;;
37891;SDS011;45797;47.466;9.486;2023-05-02T23:04:54;4.72;;;2.75;;
37891;SDS011;45797;47.466;9.486;2023-05-02T23:09:54;4.15;;;2.53;;
37891;SDS011;45797;47.466;9.486;2023-05-02T23:14:54;4.72;;;2.40;;
37891;SDS011;45797;47.466;9.486;2023-05-02T23:20:09;4.28;;;2.20;;
37891;SDS011;45797;47.466;9.486;2023-05-02T23:25:11;4.40;;;1.77;;
37891;SDS011;45797;47.466;9.486;2023-05-02T23:35:17;4.75;;;1.90;;
37891;SDS011;45797;47.466;9.486;2023-05-02T23:40:17;3.55;;;2.10;;
37891;SDS011;45797;47.466;9.486;2023-05-02T23:45:18;4.90;;;2.20;;
37891;SDS011;45797;47.466;9.486;2023-05-02T23:50:18;5.78;;;2.20;;
37891;SDS011;45797;47.466;9.486;2023-05-02T23:55:20;3.50;;;1.77;;
